sensor_id;sensor_type;location;lat;lon;timestamp;P1;durP1;ratioP1;P2;durP2;ratioP2
51485;SDS011;37565;51.352;6.412;2023-04-02T09:06:39;1.70;;;1.23;;
51485;SDS011;37565;51.352;6.412;2023-04-02T09:09:09;1.80;;;1.00;;
51485;SDS011;37565;51.352;6.412;2023-04-02T09:11:40;3.55;;;1.15;;
51485;SDS011;37565;51.352;6.412;2023-04-02T09:14:16;1.38;;;1.20;;
51485;SDS011;37565;51.352;6.412;2023-04-02T09:16:47;1.17;;;0.80;;
51485;SDS011;37565;51.352;6.412;2023-04-02T09:19:18;2.50;;;1.00;;
51485;SDS011;37565;51.352;6.412;2023-04-02T09:21:56;3.28;;;1.10;;
51485;SDS011;37565;51.352;6.412;2023-04-02T09:24:31;2.08;;;0.77;;
51485;SDS011;37565;51.352;6.412;2023-04-02T09:26:59;2.78;;;0.80;;
51485;SDS011;37565;51.352;6.412;2023-04-02T09:29:31;2.15;;;0.70;;
51485;SDS011;37565;51.352;6.412;2023-04-02T09:32:08;0.75;;;0.70;;
51485;SDS011;37565;51.352;6.412;2023-04-02T09:34:47;0.65;;;0.65;;
51485;SDS011;37565;51.352;6.412;2023-04-02T09:37:17;1.27;;;0.80;;
51485;SDS011;37565;51.352;6.412;2023-04-02T09:39:47;1.23;;;0.60;;
51485;SDS011;37565;51.352;6.412;2023-04-02T09:42:29;0.70;;;0.50;;
51485;SDS011;37565;51.352;6.412;2023-04-02T09:45:11;2.05;;;0.50;;
51485;SDS011;37565;51.352;6.412;2023-04-02T09:47:40;0.93;;;0.60;;
51485;SDS011;37565;51.352;6.412;2023-04-02T09:50:24;0.60;;;0.60;;
51485;SDS011;37565;51.352;6.412;2023-04-02T09:52:56;0.80;;;0.60;;
51485;SDS011;37565;51.352;6.412;2023-04-02T09:55:24;2.25;;;0.50;;
51485;SDS011;37565;51.352;6.412;2023-04-02T10:00:49;2.83;;;0.80;;
51485;SDS011;37565;51.352;6.412;2023-04-02T10:03:20;0.60;;;0.52;;
51485;SDS011;37565;51.352;6.412;2023-04-02T10:06:04;0.63;;;0.55;;
51485;SDS011;37565;51.352;6.412;2023-04-02T10:08:36;0.55;;;0.43;;
51485;SDS011;37565;51.352;6.412;2023-04-02T10:11:06;0.50;;;0.50;;
51485;SDS011;37565;51.352;6.412;2023-04-02T10:13:39;0.70;;;0.50;;
51485;SDS011;37565;51.352;6.412;2023-04-02T10:16:16;0.95;;;0.57;;
51485;SDS011;37565;51.352;6.412;2023-04-02T10:18:53;0.40;;;0.40;;
51485;SDS011;37565;51.352;6.412;2023-04-02T10:21:25;0.40;;;0.40;;
51485;SDS011;37565;51.352;6.412;2023-04-02T10:23:56;0.60;;;0.50;;
51485;SDS011;37565;51.352;6.412;2023-04-02T10:29:37;3.75;;;0.60;;
51485;SDS011;37565;51.352;6.412;2023-04-02T10:32:31;1.13;;;0.60;;
51485;SDS011;37565;51.352;6.412;2023-04-02T10:35:06;3.55;;;0.50;;
51485;SDS011;37565;51.352;6.412;2023-04-02T10:37:52;5.47;;;0.60;;
51485;SDS011;37565;51.352;6.412;2023-04-02T10:40:35;0.70;;;0.40;;
51485;SDS011;37565;51.352;6.412;2023-04-02T10:43:18;0.90;;;0.30;;
51485;SDS011;37565;51.352;6.412;2023-04-02T10:46:11;1.45;;;0.35;;
51485;SDS011;37565;51.352;6.412;2023-04-02T10:48:51;1.10;;;0.50;;
51485;SDS011;37565;51.352;6.412;2023-04-02T10:51:27;1.52;;;0.40;;
51485;SDS011;37565;51.352;6.412;2023-04-02T10:54:01;0.30;;;0.30;;
51485;SDS011;37565;51.352;6.412;2023-04-02T10:56:40;0.70;;;0.70;;
51485;SDS011;37565;51.352;6.412;2023-04-02T10:59:17;0.50;;;0.40;;
51485;SDS011;37565;51.352;6.412;2023-04-02T11:01:49;0.95;;;0.40;;
51485;SDS011;37565;51.352;6.412;2023-04-02T11:04:20;0.40;;;0.40;;
51485;SDS011;37565;51.352;6.412;2023-04-02T11:06:55;0.77;;;0.47;;
51485;SDS011;37565;51.352;6.412;2023-04-02T11:09:40;1.55;;;0.43;;
51485;SDS011;37565;51.352;6.412;2023-04-02T11:12:15;0.50;;;0.50;;
51485;SDS011;37565;51.352;6.412;2023-04-02T11:14:49;1.48;;;0.60;;
51485;SDS011;37565;51.352;6.412;2023-04-02T11:17:18;0.60;;;0.60;;
51485;SDS011;37565;51.352;6.412;2023-04-02T11:19:47;1.88;;;0.77;;
51485;SDS011;37565;51.352;6.412;2023-04-02T11:22:16;1.25;;;0.70;;
51485;SDS011;37565;51.352;6.412;2023-04-02T11:24:46;1.70;;;0.80;;
51485;SDS011;37565;51.352;6.412;2023-04-02T11:27:19;0.88;;;0.75;;
51485;SDS011;37565;51.352;6.412;2023-04-02T11:29:52;2.40;;;0.60;;
51485;SDS011;37565;51.352;6.412;2023-04-02T11:32:32;1.15;;;0.60;;
51485;SDS011;37565;51.352;6.412;2023-04-02T11:37:53;2.15;;;0.75;;
51485;SDS011;37565;51.352;6.412;2023-04-02T11:46:40;1.75;;;0.90;;
51485;SDS011;37565;51.352;6.412;2023-04-02T11:49:31;2.42;;;0.60;;
51485;SDS011;37565;51.352;6.412;2023-04-02T11:52:01;2.22;;;0.68;;
51485;SDS011;37565;51.352;6.412;2023-04-02T11:54:37;1.95;;;0.60;;
51485;SDS011;37565;51.352;6.412;2023-04-02T11:57:09;0.55;;;0.50;;
51485;SDS011;37565;51.352;6.412;2023-04-02T11:59:52;0.57;;;0.57;;
51485;SDS011;37565;51.352;6.412;2023-04-02T12:02:40;0.50;;;0.50;;
51485;SDS011;37565;51.352;6.412;2023-04-02T12:05:19;0.88;;;0.50;;
51485;SDS011;37565;51.352;6.412;2023-04-02T12:07:56;0.57;;;0.57;;
51485;SDS011;37565;51.352;6.412;2023-04-02T12:13:18;1.58;;;0.70;;
51485;SDS011;37565;51.352;6.412;2023-04-02T12:15:48;1.65;;;0.70;;
51485;SDS011;37565;51.352;6.412;2023-04-02T12:18:20;2.72;;;0.52;;
51485;SDS011;37565;51.352;6.412;2023-04-02T12:20:50;1.65;;;0.57;;
51485;SDS011;37565;51.352;6.412;2023-04-02T12:23:20;1.95;;;0.55;;
51485;SDS011;37565;51.352;6.412;2023-04-02T12:25:54;0.60;;;0.60;;
51485;SDS011;37565;51.352;6.412;2023-04-02T12:28:24;1.85;;;0.75;;
51485;SDS011;37565;51.352;6.412;2023-04-02T12:31:10;1.05;;;0.60;;
51485;SDS011;37565;51.352;6.412;2023-04-02T12:33:41;0.60;;;0.60;;
51485;SDS011;37565;51.352;6.412;2023-04-02T12:36:17;0.47;;;0.40;;
51485;SDS011;37565;51.352;6.412;2023-04-02T12:38:47;1.92;;;0.73;;
51485;SDS011;37565;51.352;6.412;2023-04-02T12:41:18;0.68;;;0.68;;
51485;SDS011;37565;51.352;6.412;2023-04-02T12:43:55;0.40;;;0.40;;
51485;SDS011;37565;51.352;6.412;2023-04-02T12:46:25;1.73;;;0.40;;
51485;SDS011;37565;51.352;6.412;2023-04-02T12:49:02;0.60;;;0.40;;
51485;SDS011;37565;51.352;6.412;2023-04-02T12:51:32;0.40;;;0.40;;
51485;SDS011;37565;51.352;6.412;2023-04-02T12:54:02;0.40;;;0.40;;
51485;SDS011;37565;51.352;6.412;2023-04-02T12:56:30;2.95;;;0.50;;
51485;SDS011;37565;51.352;6.412;2023-04-02T12:58:58;3.30;;;0.50;;
51485;SDS011;37565;51.352;6.412;2023-04-02T13:01:28;1.00;;;0.60;;
51485;SDS011;37565;51.352;6.412;2023-04-02T13:04:00;0.40;;;0.40;;
51485;SDS011;37565;51.352;6.412;2023-04-02T13:06:29;0.50;;;0.50;;
51485;SDS011;37565;51.352;6.412;2023-04-02T13:09:00;1.20;;;0.70;;
51485;SDS011;37565;51.352;6.412;2023-04-02T13:11:33;0.50;;;0.50;;
51485;SDS011;37565;51.352;6.412;2023-04-02T13:14:02;0.60;;;0.60;;
51485;SDS011;37565;51.352;6.412;2023-04-02T13:16:34;0.60;;;0.50;;
51485;SDS011;37565;51.352;6.412;2023-04-02T13:19:16;1.02;;;0.50;;
51485;SDS011;37565;51.352;6.412;2023-04-02T13:21:54;0.60;;;0.60;;
51485;SDS011;37565;51.352;6.412;2023-04-02T13:24:24;0.70;;;0.45;;
51485;SDS011;37565;51.352;6.412;2023-04-02T13:26:54;0.40;;;0.40;;
51485;SDS011;37565;51.352;6.412;2023-04-02T13:29:24;0.82;;;0.40;;
51485;SDS011;37565;51.352;6.412;2023-04-02T13:31:56;0.40;;;0.40;;
51485;SDS011;37565;51.352;6.412;2023-04-02T13:34:25;0.93;;;0.43;;
51485;SDS011;37565;51.352;6.412;2023-04-02T13:36:53;3.55;;;0.60;;
51485;SDS011;37565;51.352;6.412;2023-04-02T13:39:22;0.40;;;0.40;;
51485;SDS011;37565;51.352;6.412;2023-04-02T13:41:51;0.55;;;0.40;;
51485;SDS011;37565;51.352;6.412;2023-04-02T13:44:22;0.40;;;0.40;;
51485;SDS011;37565;51.352;6.412;2023-04-02T13:46:51;0.60;;;0.47;;
51485;SDS011;37565;51.352;6.412;2023-04-02T13:49:22;1.20;;;0.40;;
51485;SDS011;37565;51.352;6.412;2023-04-02T13:51:52;0.43;;;0.30;;
51485;SDS011;37565;51.352;6.412;2023-04-02T13:54:23;0.40;;;0.40;;
51485;SDS011;37565;51.352;6.412;2023-04-02T13:56:54;2.85;;;0.55;;
51485;SDS011;37565;51.352;6.412;2023-04-02T13:59:23;0.60;;;0.60;;
51485;SDS011;37565;51.352;6.412;2023-04-02T14:01:52;0.98;;;0.60;;
51485;SDS011;37565;51.352;6.412;2023-04-02T14:04:24;1.15;;;0.70;;
51485;SDS011;37565;51.352;6.412;2023-04-02T14:09:52;7.07;;;1.10;;
51485;SDS011;37565;51.352;6.412;2023-04-02T14:12:30;3.13;;;0.95;;
51485;SDS011;37565;51.352;6.412;2023-04-02T14:15:11;12.32;;;2.13;;
51485;SDS011;37565;51.352;6.412;2023-04-02T14:18:00;13.07;;;1.88;;
51485;SDS011;37565;51.352;6.412;2023-04-02T14:20:45;6.25;;;2.08;;
51485;SDS011;37565;51.352;6.412;2023-04-02T14:23:24;10.75;;;2.58;;
51485;SDS011;37565;51.352;6.412;2023-04-02T14:26:05;17.33;;;3.20;;
51485;SDS011;37565;51.352;6.412;2023-04-02T14:28:41;14.02;;;2.95;;
51485;SDS011;37565;51.352;6.412;2023-04-02T14:31:18;19.35;;;3.33;;
51485;SDS011;37565;51.352;6.412;2023-04-02T14:33:56;24.73;;;3.20;;
51485;SDS011;37565;51.352;6.412;2023-04-02T14:36:33;19.92;;;4.03;;
51485;SDS011;37565;51.352;6.412;2023-04-02T14:39:07;17.67;;;3.95;;
51485;SDS011;37565;51.352;6.412;2023-04-02T14:41:44;15.38;;;3.20;;
51485;SDS011;37565;51.352;6.412;2023-04-02T14:44:16;22.77;;;3.78;;
51485;SDS011;37565;51.352;6.412;2023-04-02T14:46:47;21.10;;;3.85;;
51485;SDS011;37565;51.352;6.412;2023-04-02T14:51:56;17.88;;;4.07;;
51485;SDS011;37565;51.352;6.412;2023-04-02T14:54:30;12.75;;;3.33;;
51485;SDS011;37565;51.352;6.412;2023-04-02T14:57:03;16.48;;;3.70;;
51485;SDS011;37565;51.352;6.412;2023-04-02T14:59:38;16.40;;;4.07;;
51485;SDS011;37565;51.352;6.412;2023-04-02T15:02:17;19.10;;;3.70;;
51485;SDS011;37565;51.352;6.412;2023-04-02T15:04:50;16.98;;;3.50;;
51485;SDS011;37565;51.352;6.412;2023-04-02T15:07:27;18.95;;;3.28;;
51485;SDS011;37565;51.352;6.412;2023-04-02T15:10:04;13.65;;;3.97;;
51485;SDS011;37565;51.352;6.412;2023-04-02T15:12:36;17.38;;;3.72;;
51485;SDS011;37565;51.352;6.412;2023-04-02T15:15:07;15.38;;;3.13;;
51485;SDS011;37565;51.352;6.412;2023-04-02T15:17:58;14.43;;;3.00;;
51485;SDS011;37565;51.352;6.412;2023-04-02T15:20:30;21.92;;;3.90;;
51485;SDS011;37565;51.352;6.412;2023-04-02T15:23:06;13.55;;;3.50;;
51485;SDS011;37565;51.352;6.412;2023-04-02T15:25:41;18.15;;;4.20;;
51485;SDS011;37565;51.352;6.412;2023-04-02T15:28:18;17.43;;;3.37;;
51485;SDS011;37565;51.352;6.412;2023-04-02T15:30:53;20.50;;;4.15;;
51485;SDS011;37565;51.352;6.412;2023-04-02T15:33:36;16.67;;;4.13;;
51485;SDS011;37565;51.352;6.412;2023-04-02T15:36:16;11.80;;;2.95;;
51485;SDS011;37565;51.352;6.412;2023-04-02T15:39:11;16.77;;;3.38;;
51485;SDS011;37565;51.352;6.412;2023-04-02T15:41:52;13.15;;;2.97;;
51485;SDS011;37565;51.352;6.412;2023-04-02T15:44:27;14.05;;;2.45;;
51485;SDS011;37565;51.352;6.412;2023-04-02T15:46:56;12.52;;;2.95;;
51485;SDS011;37565;51.352;6.412;2023-04-02T15:49:33;11.17;;;3.10;;
51485;SDS011;37565;51.352;6.412;2023-04-02T15:52:09;20.02;;;3.47;;
51485;SDS011;37565;51.352;6.412;2023-04-02T15:54:47;6.38;;;2.35;;
51485;SDS011;37565;51.352;6.412;2023-04-02T15:57:25;10.65;;;3.08;;
51485;SDS011;37565;51.352;6.412;2023-04-02T16:00:10;12.18;;;3.10;;
51485;SDS011;37565;51.352;6.412;2023-04-02T16:03:01;8.30;;;2.83;;
51485;SDS011;37565;51.352;6.412;2023-04-02T16:05:50;12.18;;;2.58;;
51485;SDS011;37565;51.352;6.412;2023-04-02T16:08:38;10.55;;;3.30;;
51485;SDS011;37565;51.352;6.412;2023-04-02T16:11:19;5.03;;;2.13;;
51485;SDS011;37565;51.352;6.412;2023-04-02T16:13:47;13.65;;;2.92;;
51485;SDS011;37565;51.352;6.412;2023-04-02T16:16:16;14.57;;;3.63;;
51485;SDS011;37565;51.352;6.412;2023-04-02T16:18:51;12.13;;;3.00;;
51485;SDS011;37565;51.352;6.412;2023-04-02T16:21:23;16.17;;;3.13;;
51485;SDS011;37565;51.352;6.412;2023-04-02T16:23:55;12.75;;;2.85;;
51485;SDS011;37565;51.352;6.412;2023-04-02T16:26:32;5.63;;;2.53;;
51485;SDS011;37565;51.352;6.412;2023-04-02T16:29:11;9.80;;;2.20;;
51485;SDS011;37565;51.352;6.412;2023-04-02T16:31:49;7.03;;;2.55;;
51485;SDS011;37565;51.352;6.412;2023-04-02T16:34:26;7.20;;;2.42;;
51485;SDS011;37565;51.352;6.412;2023-04-02T16:37:04;6.65;;;2.40;;
51485;SDS011;37565;51.352;6.412;2023-04-02T16:39:44;9.27;;;2.63;;
51485;SDS011;37565;51.352;6.412;2023-04-02T16:42:23;6.93;;;2.42;;
51485;SDS011;37565;51.352;6.412;2023-04-02T16:45:02;6.72;;;2.38;;
51485;SDS011;37565;51.352;6.412;2023-04-02T16:47:49;6.13;;;2.50;;
51485;SDS011;37565;51.352;6.412;2023-04-02T16:50:29;11.05;;;2.80;;
51485;SDS011;37565;51.352;6.412;2023-04-02T16:53:06;7.95;;;2.60;;
51485;SDS011;37565;51.352;6.412;2023-04-02T16:55:47;6.25;;;2.53;;
51485;SDS011;37565;51.352;6.412;2023-04-02T16:58:30;8.50;;;2.35;;
51485;SDS011;37565;51.352;6.412;2023-04-02T17:01:09;9.02;;;2.83;;
51485;SDS011;37565;51.352;6.412;2023-04-02T17:03:59;8.32;;;2.63;;
51485;SDS011;37565;51.352;6.412;2023-04-02T17:06:37;7.80;;;2.33;;
51485;SDS011;37565;51.352;6.412;2023-04-02T17:09:12;11.60;;;2.38;;
51485;SDS011;37565;51.352;6.412;2023-04-02T17:11:44;7.80;;;2.00;;
51485;SDS011;37565;51.352;6.412;2023-04-02T17:14:23;7.25;;;2.42;;
51485;SDS011;37565;51.352;6.412;2023-04-02T17:16:56;8.57;;;2.28;;
51485;SDS011;37565;51.352;6.412;2023-04-02T17:19:27;3.83;;;1.90;;
51485;SDS011;37565;51.352;6.412;2023-04-02T17:21:57;6.57;;;2.22;;
51485;SDS011;37565;51.352;6.412;2023-04-02T17:24:27;4.63;;;2.13;;
51485;SDS011;37565;51.352;6.412;2023-04-02T17:27:02;6.47;;;1.95;;
51485;SDS011;37565;51.352;6.412;2023-04-02T17:29:36;5.07;;;1.88;;
51485;SDS011;37565;51.352;6.412;2023-04-02T17:32:11;7.47;;;2.08;;
51485;SDS011;37565;51.352;6.412;2023-04-02T17:34:44;6.63;;;2.03;;
51485;SDS011;37565;51.352;6.412;2023-04-02T17:37:15;9.25;;;2.30;;
51485;SDS011;37565;51.352;6.412;2023-04-02T17:39:54;3.88;;;1.92;;
51485;SDS011;37565;51.352;6.412;2023-04-02T17:42:36;5.53;;;2.08;;
51485;SDS011;37565;51.352;6.412;2023-04-02T17:45:16;6.80;;;2.35;;
51485;SDS011;37565;51.352;6.412;2023-04-02T17:47:53;4.05;;;1.90;;
51485;SDS011;37565;51.352;6.412;2023-04-02T17:50:36;5.45;;;2.40;;
51485;SDS011;37565;51.352;6.412;2023-04-02T17:53:14;6.22;;;2.38;;
51485;SDS011;37565;51.352;6.412;2023-04-02T17:55:49;5.85;;;1.90;;
51485;SDS011;37565;51.352;6.412;2023-04-02T17:58:34;2.92;;;1.60;;
51485;SDS011;37565;51.352;6.412;2023-04-02T18:01:17;4.97;;;2.28;;
51485;SDS011;37565;51.352;6.412;2023-04-02T18:03:52;3.65;;;1.88;;
51485;SDS011;37565;51.352;6.412;2023-04-02T18:06:31;4.72;;;1.77;;
51485;SDS011;37565;51.352;6.412;2023-04-02T18:09:10;5.00;;;1.75;;
51485;SDS011;37565;51.352;6.412;2023-04-02T18:11:49;5.22;;;1.88;;
51485;SDS011;37565;51.352;6.412;2023-04-02T18:14:29;4.65;;;1.85;;
51485;SDS011;37565;51.352;6.412;2023-04-02T18:17:11;6.13;;;2.08;;
51485;SDS011;37565;51.352;6.412;2023-04-02T18:19:48;6.80;;;2.00;;
51485;SDS011;37565;51.352;6.412;2023-04-02T18:22:21;4.15;;;1.95;;
51485;SDS011;37565;51.352;6.412;2023-04-02T18:25:11;7.57;;;1.88;;
51485;SDS011;37565;51.352;6.412;2023-04-02T18:28:01;5.78;;;1.75;;
51485;SDS011;37565;51.352;6.412;2023-04-02T18:30:39;4.30;;;1.50;;
51485;SDS011;37565;51.352;6.412;2023-04-02T18:35:53;8.50;;;2.95;;
51485;SDS011;37565;51.352;6.412;2023-04-02T18:38:28;5.97;;;3.55;;
51485;SDS011;37565;51.352;6.412;2023-04-02T18:41:02;6.95;;;4.85;;
51485;SDS011;37565;51.352;6.412;2023-04-02T18:43:41;8.90;;;6.03;;
51485;SDS011;37565;51.352;6.412;2023-04-02T18:46:24;12.88;;;6.60;;
51485;SDS011;37565;51.352;6.412;2023-04-02T18:49:03;15.88;;;8.38;;
51485;SDS011;37565;51.352;6.412;2023-04-02T18:51:39;13.27;;;9.05;;
51485;SDS011;37565;51.352;6.412;2023-04-02T18:54:09;15.93;;;9.82;;
51485;SDS011;37565;51.352;6.412;2023-04-02T18:56:41;15.50;;;9.65;;
51485;SDS011;37565;51.352;6.412;2023-04-02T18:59:25;16.17;;;9.27;;
51485;SDS011;37565;51.352;6.412;2023-04-02T19:01:59;20.17;;;12.25;;
51485;SDS011;37565;51.352;6.412;2023-04-02T19:04:45;20.88;;;13.13;;
51485;SDS011;37565;51.352;6.412;2023-04-02T19:07:24;17.67;;;12.68;;
51485;SDS011;37565;51.352;6.412;2023-04-02T19:09:55;19.42;;;12.93;;
51485;SDS011;37565;51.352;6.412;2023-04-02T19:12:27;22.35;;;13.27;;
51485;SDS011;37565;51.352;6.412;2023-04-02T19:14:58;23.00;;;14.40;;
51485;SDS011;37565;51.352;6.412;2023-04-02T19:17:27;25.73;;;14.55;;
51485;SDS011;37565;51.352;6.412;2023-04-02T19:20:06;20.33;;;13.88;;
51485;SDS011;37565;51.352;6.412;2023-04-02T19:22:41;24.52;;;14.93;;
51485;SDS011;37565;51.352;6.412;2023-04-02T19:25:28;22.98;;;16.25;;
51485;SDS011;37565;51.352;6.412;2023-04-02T19:28:08;25.08;;;16.23;;
51485;SDS011;37565;51.352;6.412;2023-04-02T19:30:48;26.25;;;15.70;;
51485;SDS011;37565;51.352;6.412;2023-04-02T19:33:37;22.70;;;15.55;;
51485;SDS011;37565;51.352;6.412;2023-04-02T19:36:34;31.33;;;17.60;;
51485;SDS011;37565;51.352;6.412;2023-04-02T19:39:31;28.90;;;17.75;;
51485;SDS011;37565;51.352;6.412;2023-04-02T19:42:19;28.55;;;17.00;;
51485;SDS011;37565;51.352;6.412;2023-04-02T19:44:56;26.30;;;17.15;;
51485;SDS011;37565;51.352;6.412;2023-04-02T19:47:24;26.88;;;17.00;;
51485;SDS011;37565;51.352;6.412;2023-04-02T19:49:53;29.10;;;18.27;;
51485;SDS011;37565;51.352;6.412;2023-04-02T19:52:23;30.15;;;18.75;;
51485;SDS011;37565;51.352;6.412;2023-04-02T19:54:51;28.48;;;18.75;;
51485;SDS011;37565;51.352;6.412;2023-04-02T19:57:19;30.88;;;19.58;;
51485;SDS011;37565;51.352;6.412;2023-04-02T19:59:47;34.22;;;20.42;;
51485;SDS011;37565;51.352;6.412;2023-04-02T20:02:15;38.05;;;21.20;;
51485;SDS011;37565;51.352;6.412;2023-04-02T20:04:43;29.65;;;20.83;;
51485;SDS011;37565;51.352;6.412;2023-04-02T20:07:11;30.05;;;20.40;;
51485;SDS011;37565;51.352;6.412;2023-04-02T20:09:40;29.30;;;19.60;;
51485;SDS011;37565;51.352;6.412;2023-04-02T20:12:08;30.20;;;20.15;;
51485;SDS011;37565;51.352;6.412;2023-04-02T20:14:36;29.02;;;20.33;;
51485;SDS011;37565;51.352;6.412;2023-04-02T20:17:04;30.63;;;20.73;;
51485;SDS011;37565;51.352;6.412;2023-04-02T20:19:32;31.25;;;19.73;;
51485;SDS011;37565;51.352;6.412;2023-04-02T20:22:00;33.30;;;21.17;;
51485;SDS011;37565;51.352;6.412;2023-04-02T20:24:28;34.45;;;20.90;;
51485;SDS011;37565;51.352;6.412;2023-04-02T20:26:57;33.65;;;22.15;;
51485;SDS011;37565;51.352;6.412;2023-04-02T20:29:25;37.30;;;23.80;;
51485;SDS011;37565;51.352;6.412;2023-04-02T20:31:55;35.85;;;22.75;;
51485;SDS011;37565;51.352;6.412;2023-04-02T20:34:23;40.38;;;24.85;;
51485;SDS011;37565;51.352;6.412;2023-04-02T20:36:52;43.92;;;24.77;;
51485;SDS011;37565;51.352;6.412;2023-04-02T20:39:19;42.28;;;27.45;;
51485;SDS011;37565;51.352;6.412;2023-04-02T20:41:47;44.67;;;28.33;;
51485;SDS011;37565;51.352;6.412;2023-04-02T20:44:17;47.03;;;28.63;;
51485;SDS011;37565;51.352;6.412;2023-04-02T20:46:45;48.13;;;29.63;;
51485;SDS011;37565;51.352;6.412;2023-04-02T20:49:12;49.13;;;30.80;;
51485;SDS011;37565;51.352;6.412;2023-04-02T20:51:40;53.65;;;30.77;;
51485;SDS011;37565;51.352;6.412;2023-04-02T20:54:08;49.25;;;32.67;;
51485;SDS011;37565;51.352;6.412;2023-04-02T20:56:36;49.20;;;31.00;;
51485;SDS011;37565;51.352;6.412;2023-04-02T20:59:04;48.55;;;32.60;;
51485;SDS011;37565;51.352;6.412;2023-04-02T21:01:34;56.65;;;34.45;;
51485;SDS011;37565;51.352;6.412;2023-04-02T21:04:02;52.33;;;33.85;;
51485;SDS011;37565;51.352;6.412;2023-04-02T21:06:31;56.25;;;34.17;;
51485;SDS011;37565;51.352;6.412;2023-04-02T21:09:01;49.10;;;33.67;;
51485;SDS011;37565;51.352;6.412;2023-04-02T21:11:34;54.15;;;34.85;;
51485;SDS011;37565;51.352;6.412;2023-04-02T21:14:02;54.10;;;36.08;;
51485;SDS011;37565;51.352;6.412;2023-04-02T21:16:30;60.33;;;36.50;;
51485;SDS011;37565;51.352;6.412;2023-04-02T21:19:00;57.47;;;36.08;;
51485;SDS011;37565;51.352;6.412;2023-04-02T21:21:30;60.38;;;37.58;;
51485;SDS011;37565;51.352;6.412;2023-04-02T21:24:00;63.72;;;38.33;;
51485;SDS011;37565;51.352;6.412;2023-04-02T21:26:29;58.05;;;39.33;;
